Time;durP1;ratioP1;P1;durP2;ratioP2;P2;SDS_P1;SDS_P2;PMS_P1;PMS_P2;Temp;Humidity;BMP_temperature;BMP_pressure;BME280_temperature;BME280_humidity;BME280_pressure;Samples;Min_cycle;Max_cycle;Signal;HPM_P1;HPM_P2
2023/03/24 00:01:10;;;;;;;;;;;;;;;;;;5072250;28;19966;-51
2023/03/24 00:03:36;;;;;;;;;;;;;;;;;;5073681;28;19911;-53
2023/03/24 00:06:02;;;;;;;;;;;;;;;;;;5072027;28;19915;-51
2023/03/24 00:08:29;;;;;;;;;;;;;;;;;;5073298;28;19904;-51
2023/03/24 00:10:55;;;;;;;;;;;;;;;;;;5066239;28;19963;-55
2023/03/24 00:13:21;;;;;;;;;;;;;;;;;;5072401;28;20311;-52
2023/03/24 00:15:47;;;;;;;;;;;;;;;;;;5072632;28;19908;-50
2023/03/24 00:18:13;;;;;;;;;;;;;;;;;;5072204;28;20805;-56
2023/03/24 00:20:41;;;;;;;;;;;;;;;;;;5072408;28;19904;-52
2023/03/24 00:23:06;;;;;;;;;;;;;;;;;;5072131;28;20025;-53
2023/03/24 00:25:35;;;;;;;;;;;;;;;;;;5072119;28;20443;-54
2023/03/24 00:28:01;;;;;;;;;;;;;;;;;;5067976;28;19917;-54
2023/03/24 00:30:27;;;;;;;;;;;;;;;;;;5070970;28;20054;-53
2023/03/24 00:32:53;;;;;;;;;;;;;;;;;;5072253;28;19957;-49
2023/03/24 00:35:19;;;;;;;;;;;;;;;;;;5072316;28;20249;-49
2023/03/24 00:37:45;;;;;;;;;;;;;;;;;;5072859;28;19915;-50
2023/03/24 00:40:11;;;;;;;;;;;;;;;;;;5071248;28;19904;-50
2023/03/24 00:42:37;;;;;;;;;;;;;;;;;;5087714;28;19904;-49
2023/03/24 00:45:03;;;;;;;;;;;;;;;;;;5091617;28;19957;-51
2023/03/24 00:47:29;;;;;;;;;;;;;;;;;;5068050;28;19923;-51
2023/03/24 00:49:56;;;;;;;;;;;;;;;;;;5068643;28;20255;-54
2023/03/24 00:52:23;;;;;;;;;;;;;;;;;;5071564;28;19904;-54
2023/03/24 00:54:49;;;;;;;;;;;;;;;;;;5071341;28;20006;-52
2023/03/24 00:57:21;;;;;;;;;;;;;;;;;;5070515;28;20011;-54
2023/03/24 00:59:47;;;;;;;;;;;;;;;;;;5071606;28;19905;-55
2023/03/24 01:02:13;;;;;;;;;;;;;;;;;;5070254;28;20257;-53
2023/03/24 01:04:39;;;;;;;;;;;;;;;;;;5066201;28;19916;-54
2023/03/24 01:07:06;;;;;;;;;;;;;;;;;;5050368;28;19948;-51
2023/03/24 01:09:32;;;;;;;;;;;;;;;;;;5051315;28;19954;-52
2023/03/24 01:11:58;;;;;;;;;;;;;;;;;;5050277;28;19912;-54
2023/03/24 01:14:24;;;;;;;;;;;;;;;;;;5069832;28;19904;-54
2023/03/24 01:16:51;;;;;;;;;;;;;;;;;;5090754;28;19912;-49
2023/03/24 01:19:17;;;;;;;;;;;;;;;;;;5076371;28;20352;-56
2023/03/24 01:21:43;;;;;;;;;;;;;;;;;;5070956;28;19911;-53
2023/03/24 01:24:09;;;;;;;;;;;;;;;;;;5069017;28;19905;-50
2023/03/24 01:26:35;;;;;;;;;;;;;;;;;;5070714;28;19904;-53
2023/03/24 01:29:01;;;;;;;;;;;;;;;;;;5070152;28;20009;-54
2023/03/24 01:31:27;;;;;;;;;;;;;;;;;;5070861;28;19908;-54
2023/03/24 01:33:53;;;;;;;;;;;;;;;;;;5071035;28;19904;-50
2023/03/24 01:36:18;;;;;;;;;;;;;;;;;;5064574;28;19912;-54
2023/03/24 01:38:44;;;;;;;;;;;;;;;;;;5071254;28;19909;-52
2023/03/24 01:41:10;;;;;;;;;;;;;;;;;;5072765;28;19900;-54
2023/03/24 01:43:36;;;;;;;;;;;;;;;;;;5091234;28;20280;-54
2023/03/24 01:46:02;;;;;;;;;;;;;;;;;;5089642;28;20377;-51
2023/03/24 01:49:34;;;;;;;;;;;;;;;;;;5103538;27;1950473;-50
2023/03/24 01:52:00;;;;;;;;;;;;;;;;;;5165012;27;19915;-54
2023/03/24 01:54:26;;;;;;;;;;;;;;;;;;5152326;27;19922;-53
2023/03/24 01:56:52;;;;;;;;;;;;;;;;;;5150343;27;20302;-50
2023/03/24 01:59:18;;;;;;;;;;;;;;;;;;5151158;27;20362;-49
2023/03/24 02:01:44;;;;;;;;;;;;;;;;;;5150806;27;19986;-50
2023/03/24 02:04:10;;;;;;;;;;;;;;;;;;5150108;27;19907;-52
2023/03/24 02:06:39;;;;;;;;;;;;;;;;;;5150645;27;19912;-49
2023/03/24 02:09:05;;;;;;;;;;;;;;;;;;5149784;27;19915;-52
2023/03/24 02:11:31;;;;;;;;;;;;;;;;;;5150096;27;19965;-52
2023/03/24 02:13:57;;;;;;;;;;;;;;;;;;5155881;27;19907;-52
2023/03/24 02:16:23;;;;;;;;;;;;;;;;;;5171357;27;19910;-51
2023/03/24 02:18:51;;;;;;;;;;;;;;;;;;5171836;27;19914;-50
2023/03/24 02:21:17;;;;;;;;;;;;;;;;;;5170702;27;19914;-48
2023/03/24 02:23:43;;;;;;;;;;;;;;;;;;5171689;27;19907;-48
2023/03/24 02:26:09;;;;;;;;;;;;;;;;;;5164501;27;20645;-54
2023/03/24 02:28:35;;;;;;;;;;;;;;;;;;5151645;27;19911;-52
2023/03/24 02:31:02;;;;;;;;;;;;;;;;;;5149142;27;20368;-54
2023/03/24 02:33:28;;;;;;;;;;;;;;;;;;5150484;27;19912;-53
2023/03/24 02:35:54;;;;;;;;;;;;;;;;;;5148818;27;19987;-50
2023/03/24 02:38:20;;;;;;;;;;;;;;;;;;5150642;27;19935;-52
2023/03/24 02:40:46;;;;;;;;;;;;;;;;;;5149988;27;19933;-53
2023/03/24 02:43:12;;;;;;;;;;;;;;;;;;5170223;27;20422;-54
2023/03/24 02:45:38;;;;;;;;;;;;;;;;;;5151477;27;19956;-51
2023/03/24 02:48:04;;;;;;;;;;;;;;;;;;5149227;27;20398;-51
2023/03/24 02:50:30;;;;;;;;;;;;;;;;;;5149559;27;19968;-49
2023/03/24 02:52:56;;;;;;;;;;;;;;;;;;5149200;27;20382;-52
2023/03/24 02:55:22;;;;;;;;;;;;;;;;;;5149727;27;19907;-49
2023/03/24 02:57:48;;;;;;;;;;;;;;;;;;5149770;27;19943;-50
2023/03/24 03:00:17;;;;;;;;;;;;;;;;;;5137150;27;21621;-53
2023/03/24 03:02:43;;;;;;;;;;;;;;;;;;5155292;27;19913;-54
2023/03/24 03:05:12;;;;;;;;;;;;;;;;;;5155778;27;19908;-52
2023/03/24 03:07:40;;;;;;;;;;;;;;;;;;5156512;27;20128;-52
2023/03/24 03:10:06;;;;;;;;;;;;;;;;;;5155557;27;19911;-53
2023/03/24 03:12:31;;;;;;;;;;;;;;;;;;5156852;27;20006;-53
2023/03/24 03:14:57;;;;;;;;;;;;;;;;;;5140950;27;19951;-53
2023/03/24 03:17:24;;;;;;;;;;;;;;;;;;5135511;27;19918;-52
2023/03/24 03:19:51;;;;;;;;;;;;;;;;;;5136098;27;19998;-50
2023/03/24 03:22:17;;;;;;;;;;;;;;;;;;5135264;27;19911;-52
2023/03/24 03:24:43;;;;;;;;;;;;;;;;;;5135875;27;20229;-52
2023/03/24 03:27:09;;;;;;;;;;;;;;;;;;5134064;27;19951;-51
2023/03/24 03:29:35;;;;;;;;;;;;;;;;;;5135192;27;19960;-54
2023/03/24 03:32:06;;;;;;;;;;;;;;;;;;5134505;27;20383;-51
2023/03/24 03:34:32;;;;;;;;;;;;;;;;;;5134639;27;20033;-52
2023/03/24 03:36:58;;;;;;;;;;;;;;;;;;5134700;27;19994;-51
2023/03/24 03:39:24;;;;;;;;;;;;;;;;;;5135419;27;19907;-52
2023/03/24 03:41:50;;;;;;;;;;;;;;;;;;5143668;27;19913;-52
2023/03/24 03:44:15;;;;;;;;;;;;;;;;;;5155639;27;20007;-51
2023/03/24 03:46:41;;;;;;;;;;;;;;;;;;5155571;27;19907;-54
2023/03/24 03:49:07;;;;;;;;;;;;;;;;;;5154529;27;19963;-50
2023/03/24 03:51:33;;;;;;;;;;;;;;;;;;5141695;27;19911;-54
2023/03/24 03:53:59;;;;;;;;;;;;;;;;;;5134364;27;20306;-51
2023/03/24 03:56:25;;;;;;;;;;;;;;;;;;5134621;27;20156;-50
2023/03/24 03:58:52;;;;;;;;;;;;;;;;;;5134291;27;20363;-51
2023/03/24 04:01:18;;;;;;;;;;;;;;;;;;5134369;27;19922;-52
2023/03/24 04:03:44;;;;;;;;;;;;;;;;;;5135147;27;20346;-53
2023/03/24 04:06:12;;;;;;;;;;;;;;;;;;5139053;27;19975;-51
2023/03/24 04:08:38;;;;;;;;;;;;;;;;;;5155605;27;19911;-51
2023/03/24 04:11:04;;;;;;;;;;;;;;;;;;5138017;27;20292;-54
2023/03/24 04:13:30;;;;;;;;;;;;;;;;;;5136111;27;19918;-51
2023/03/24 04:15:56;;;;;;;;;;;;;;;;;;5154265;27;19911;-54
2023/03/24 04:18:22;;;;;;;;;;;;;;;;;;5155221;27;19907;-51
2023/03/24 04:20:48;;;;;;;;;;;;;;;;;;5155061;27;19914;-52
2023/03/24 04:23:17;;;;;;;;;;;;;;;;;;5154370;27;19968;-53
2023/03/24 04:25:43;;;;;;;;;;;;;;;;;;5155032;27;20330;-52
2023/03/24 04:28:09;;;;;;;;;;;;;;;;;;5147433;27;19924;-54
2023/03/24 04:30:36;;;;;;;;;;;;;;;;;;5153951;27;19933;-53
2023/03/24 04:33:01;;;;;;;;;;;;;;;;;;5154266;27;19907;-55
2023/03/24 04:35:30;;;;;;;;;;;;;;;;;;5143065;27;20260;-54
2023/03/24 04:37:56;;;;;;;;;;;;;;;;;;5133688;27;20437;-51
2023/03/24 04:40:22;;;;;;;;;;;;;;;;;;5133594;27;19911;-53
2023/03/24 04:42:48;;;;;;;;;;;;;;;;;;5134158;27;19914;-53
2023/03/24 04:45:14;;;;;;;;;;;;;;;;;;5131570;27;19915;-53
2023/03/24 04:47:41;;;;;;;;;;;;;;;;;;5141188;27;19991;-53
2023/03/24 04:50:09;;;;;;;;;;;;;;;;;;5153843;27;20344;-54
2023/03/24 04:52:35;;;;;;;;;;;;;;;;;;5154562;27;19911;-53
2023/03/24 04:55:01;;;;;;;;;;;;;;;;;;5153620;27;19907;-51
2023/03/24 04:57:27;;;;;;;;;;;;;;;;;;5154804;27;19907;-54
2023/03/24 04:59:53;;;;;;;;;;;;;;;;;;5154200;27;19921;-51
2023/03/24 05:02:19;;;;;;;;;;;;;;;;;;5152456;27;20009;-48
2023/03/24 05:04:45;;;;;;;;;;;;;;;;;;5133361;27;20360;-52
2023/03/24 05:07:11;;;;;;;;;;;;;;;;;;5132560;27;19907;-50
2023/03/24 05:09:36;;;;;;;;;;;;;;;;;;5133726;27;19916;-52
2023/03/24 05:12:02;;;;;;;;;;;;;;;;;;5132603;27;20253;-54
2023/03/24 05:14:28;;;;;;;;;;;;;;;;;;5143411;27;19943;-54
2023/03/24 05:16:54;;;;;;;;;;;;;;;;;;5153080;27;19907;-50
2023/03/24 05:19:20;;;;;;;;;;;;;;;;;;5154225;27;19968;-52
2023/03/24 05:21:46;;;;;;;;;;;;;;;;;;5153654;27;19994;-54
2023/03/24 05:24:12;;;;;;;;;;;;;;;;;;5133219;27;19968;-54
2023/03/24 05:26:38;;;;;;;;;;;;;;;;;;5132742;27;19907;-54
2023/03/24 05:29:04;;;;;;;;;;;;;;;;;;5132643;27;19918;-52
2023/03/24 05:31:30;;;;;;;;;;;;;;;;;;5132713;27;19912;-52
2023/03/24 05:33:56;;;;;;;;;;;;;;;;;;5132394;27;19911;-54
2023/03/24 05:36:21;;;;;;;;;;;;;;;;;;5133009;27;19959;-53
2023/03/24 05:38:47;;;;;;;;;;;;;;;;;;5133263;27;19965;-54
2023/03/24 05:41:13;;;;;;;;;;;;;;;;;;5135267;27;19967;-53
2023/03/24 05:43:39;;;;;;;;;;;;;;;;;;5154393;27;19907;-53
2023/03/24 05:46:05;;;;;;;;;;;;;;;;;;5152631;27;19907;-54
2023/03/24 05:48:31;;;;;;;;;;;;;;;;;;5153468;27;20257;-52
2023/03/24 05:50:57;;;;;;;;;;;;;;;;;;5152540;27;19990;-54
2023/03/24 05:53:23;;;;;;;;;;;;;;;;;;5153935;27;19926;-54
2023/03/24 05:55:52;;;;;;;;;;;;;;;;;;5147753;27;20270;-54
2023/03/24 05:58:20;;;;;;;;;;;;;;;;;;5133546;27;20363;-51
2023/03/24 06:00:46;;;;;;;;;;;;;;;;;;5132689;28;20002;-51
2023/03/24 06:03:12;;;;;;;;;;;;;;;;;;5132178;28;19910;-52
2023/03/24 06:05:38;;;;;;;;;;;;;;;;;;5132727;28;19911;-52
2023/03/24 06:08:04;;;;;;;;;;;;;;;;;;5132072;28;19921;-50
2023/03/24 06:10:30;;;;;;;;;;;;;;;;;;5131942;28;19952;-52
2023/03/24 06:12:56;;;;;;;;;;;;;;;;;;5130587;27;19915;-53
2023/03/24 06:15:23;;;;;;;;;;;;;;;;;;5132926;27;19912;-50
2023/03/24 06:17:49;;;;;;;;;;;;;;;;;;5132996;28;19908;-51
2023/03/24 06:20:15;;;;;;;;;;;;;;;;;;5131931;28;19914;-50
2023/03/24 06:22:41;;;;;;;;;;;;;;;;;;5132903;28;20354;-52
2023/03/24 06:25:08;;;;;;;;;;;;;;;;;;5131742;28;19914;-53
2023/03/24 06:27:34;;;;;;;;;;;;;;;;;;5132952;28;19907;-55
2023/03/24 06:30:00;;;;;;;;;;;;;;;;;;5131117;28;19907;-54
2023/03/24 06:32:26;;;;;;;;;;;;;;;;;;5131561;27;19922;-54
2023/03/24 06:34:52;;;;;;;;;;;;;;;;;;5131222;27;19911;-54
2023/03/24 06:37:18;;;;;;;;;;;;;;;;;;5144297;27;19929;-56
2023/03/24 06:39:44;;;;;;;;;;;;;;;;;;5143448;27;19911;-55
2023/03/24 06:42:10;;;;;;;;;;;;;;;;;;5130910;27;20014;-56
2023/03/24 06:44:36;;;;;;;;;;;;;;;;;;5145306;27;19922;-58
2023/03/24 06:47:02;;;;;;;;;;;;;;;;;;5140169;27;19911;-56
2023/03/24 06:49:28;;;;;;;;;;;;;;;;;;5134014;27;20017;-56
2023/03/24 06:51:54;;;;;;;;;;;;;;;;;;5134823;27;19907;-55
2023/03/24 06:54:21;;;;;;;;;;;;;;;;;;5135231;27;19940;-57
2023/03/24 06:56:46;;;;;;;;;;;;;;;;;;5135371;27;20276;-58
2023/03/24 06:59:12;;;;;;;;;;;;;;;;;;5134189;27;19928;-55
2023/03/24 07:01:38;;;;;;;;;;;;;;;;;;5134910;27;19907;-56
2023/03/24 07:04:04;;;;;;;;;;;;;;;;;;5135059;27;19907;-56
2023/03/24 07:06:30;;;;;;;;;;;;;;;;;;5132770;27;19916;-56
2023/03/24 07:08:56;;;;;;;;;;;;;;;;;;5151006;27;19926;-56
2023/03/24 07:11:22;;;;;;;;;;;;;;;;;;5135082;27;20265;-56
2023/03/24 07:13:48;;;;;;;;;;;;;;;;;;5136245;27;20374;-55
2023/03/24 07:16:14;;;;;;;;;;;;;;;;;;5134677;27;19912;-56
2023/03/24 07:18:40;;;;;;;;;;;;;;;;;;5135458;27;19907;-56
2023/03/24 07:21:06;;;;;;;;;;;;;;;;;;5134577;27;20013;-56
2023/03/24 07:23:32;;;;;;;;;;;;;;;;;;5135157;27;19923;-56
2023/03/24 07:25:58;;;;;;;;;;;;;;;;;;5134264;27;19912;-56
2023/03/24 07:28:24;;;;;;;;;;;;;;;;;;5135179;27;20337;-55
2023/03/24 07:30:50;;;;;;;;;;;;;;;;;;5134374;27;19912;-51
2023/03/24 07:33:16;;;;;;;;;;;;;;;;;;5134906;27;19911;-55
2023/03/24 07:35:41;;;;;;;;;;;;;;;;;;5134650;27;19975;-55
2023/03/24 07:38:07;;;;;;;;;;;;;;;;;;5149714;27;19973;-56
2023/03/24 07:40:36;;;;;;;;;;;;;;;;;;5155026;27;19914;-56
2023/03/24 07:43:04;;;;;;;;;;;;;;;;;;5135752;27;19915;-56
2023/03/24 07:45:29;;;;;;;;;;;;;;;;;;5134164;27;20317;-56
2023/03/24 07:48:00;;;;;;;;;;;;;;;;;;5133973;27;19923;-55
2023/03/24 07:50:26;;;;;;;;;;;;;;;;;;5134240;27;20283;-55
2023/03/24 07:52:52;;;;;;;;;;;;;;;;;;5134640;27;19907;-52
2023/03/24 07:55:18;;;;;;;;;;;;;;;;;;5134604;27;19914;-55
2023/03/24 07:57:44;;;;;;;;;;;;;;;;;;5135054;27;20348;-56
2023/03/24 08:00:14;;;;;;;;;;;;;;;;;;5145298;27;20011;-56
2023/03/24 08:02:40;;;;;;;;;;;;;;;;;;5135750;27;19914;-56
2023/03/24 08:05:06;;;;;;;;;;;;;;;;;;5140005;27;19964;-55
2023/03/24 08:07:33;;;;;;;;;;;;;;;;;;5145047;27;19956;-56
2023/03/24 08:09:59;;;;;;;;;;;;;;;;;;5133510;27;19912;-56
2023/03/24 08:12:25;;;;;;;;;;;;;;;;;;5134601;27;19914;-55
2023/03/24 08:14:51;;;;;;;;;;;;;;;;;;5134547;27;19929;-53
2023/03/24 08:17:16;;;;;;;;;;;;;;;;;;5141175;27;20419;-55
2023/03/24 08:19:42;;;;;;;;;;;;;;;;;;5143235;27;19907;-56
2023/03/24 08:22:08;;;;;;;;;;;;;;;;;;5139469;27;20007;-55
2023/03/24 08:24:35;;;;;;;;;;;;;;;;;;5136152;27;19915;-55
2023/03/24 08:27:05;;;;;;;;;;;;;;;;;;5132867;27;20028;-56
2023/03/24 08:29:30;;;;;;;;;;;;;;;;;;5134275;27;19958;-55
2023/03/24 08:31:56;;;;;;;;;;;;;;;;;;5132803;27;20000;-55
2023/03/24 08:34:23;;;;;;;;;;;;;;;;;;5134200;27;19918;-55
2023/03/24 08:36:50;;;;;;;;;;;;;;;;;;5148991;27;19914;-55
2023/03/24 08:39:16;;;;;;;;;;;;;;;;;;5146159;27;19912;-55
2023/03/24 08:41:42;;;;;;;;;;;;;;;;;;5141094;27;20268;-55
2023/03/24 08:44:10;;;;;;;;;;;;;;;;;;5135964;27;19918;-56
2023/03/24 08:46:36;;;;;;;;;;;;;;;;;;5133397;27;19916;-56
2023/03/24 08:49:02;;;;;;;;;;;;;;;;;;5132552;27;19920;-54
2023/03/24 08:51:28;;;;;;;;;;;;;;;;;;5133071;27;20348;-56
2023/03/24 08:53:54;;;;;;;;;;;;;;;;;;5130667;27;19907;-53
2023/03/24 08:56:20;;;;;;;;;;;;;;;;;;5141811;27;20300;-54
2023/03/24 08:58:50;;;;;;;;;;;;;;;;;;5148944;27;19915;-55
2023/03/24 09:01:16;;;;;;;;;;;;;;;;;;5132632;27;20030;-54
2023/03/24 09:03:43;;;;;;;;;;;;;;;;;;5133623;27;19908;-55
2023/03/24 09:06:09;;;;;;;;;;;;;;;;;;5132134;27;19994;-55
2023/03/24 09:08:35;;;;;;;;;;;;;;;;;;5133325;27;20019;-56
2023/03/24 09:11:01;;;;;;;;;;;;;;;;;;5131796;27;19911;-53
2023/03/24 09:13:27;;;;;;;;;;;;;;;;;;5134261;27;19933;-54
2023/03/24 09:15:52;;;;;;;;;;;;;;;;;;5132300;27;19912;-48
2023/03/24 09:18:18;;;;;;;;;;;;;;;;;;5133383;27;19939;-56
2023/03/24 09:20:44;;;;;;;;;;;;;;;;;;5132809;27;19911;-56
2023/03/24 09:23:10;;;;;;;;;;;;;;;;;;5132437;27;20087;-55
2023/03/24 09:25:36;;;;;;;;;;;;;;;;;;5133011;27;20356;-57
2023/03/24 09:28:02;;;;;;;;;;;;;;;;;;5132274;27;19911;-56
2023/03/24 09:30:28;;;;;;;;;;;;;;;;;;5142025;27;19976;-56
2023/03/24 09:32:57;;;;;;;;;;;;;;;;;;5139510;27;19951;-49
2023/03/24 09:35:23;;;;;;;;;;;;;;;;;;5132766;27;19914;-55
2023/03/24 09:37:49;;;;;;;;;;;;;;;;;;5114524;27;20002;-56
2023/03/24 09:40:15;;;;;;;;;;;;;;;;;;5132055;27;19908;-54
2023/03/24 09:42:41;;;;;;;;;;;;;;;;;;5136816;27;19908;-57
2023/03/24 09:45:07;;;;;;;;;;;;;;;;;;5131850;27;20439;-56
2023/03/24 09:47:32;;;;;;;;;;;;;;;;;;5135275;27;19957;-55
2023/03/24 09:49:58;;;;;;;;;;;;;;;;;;5132159;27;20455;-53
2023/03/24 09:52:24;;;;;;;;;;;;;;;;;;5114573;28;19907;-56
2023/03/24 09:54:50;;;;;;;;;;;;;;;;;;5132521;27;19908;-53
2023/03/24 09:57:16;;;;;;;;;;;;;;;;;;5131893;27;19908;-57
2023/03/24 09:59:42;;;;;;;;;;;;;;;;;;5132667;27;20280;-55
2023/03/24 10:02:08;;;;;;;;;;;;;;;;;;5131607;27;19908;-56
2023/03/24 10:04:34;;;;;;;;;;;;;;;;;;5145052;27;19911;-56
2023/03/24 10:07:00;;;;;;;;;;;;;;;;;;5134106;27;19915;-55
2023/03/24 10:09:27;;;;;;;;;;;;;;;;;;5133613;27;19916;-56
2023/03/24 10:11:53;;;;;;;;;;;;;;;;;;5135813;27;20383;-52
2023/03/24 10:14:19;;;;;;;;;;;;;;;;;;5136707;27;19951;-56
2023/03/24 10:16:45;;;;;;;;;;;;;;;;;;5136587;27;19912;-56
2023/03/24 10:19:11;;;;;;;;;;;;;;;;;;5136167;27;19908;-56
2023/03/24 10:21:37;;;;;;;;;;;;;;;;;;5144046;27;20424;-56
2023/03/24 10:24:03;;;;;;;;;;;;;;;;;;5135944;27;19994;-56
2023/03/24 10:26:29;;;;;;;;;;;;;;;;;;5136406;27;19914;-55
2023/03/24 10:28:55;;;;;;;;;;;;;;;;;;5135682;27;19915;-56
2023/03/24 10:31:21;;;;;;;;;;;;;;;;;;5136060;27;20417;-55
2023/03/24 10:33:46;;;;;;;;;;;;;;;;;;5136677;27;20001;-55
2023/03/24 10:36:13;;;;;;;;;;;;;;;;;;5135413;27;19903;-54
2023/03/24 10:38:39;;;;;;;;;;;;;;;;;;5136586;27;19915;-56
2023/03/24 10:41:05;;;;;;;;;;;;;;;;;;5138117;27;19912;-56
2023/03/24 10:43:32;;;;;;;;;;;;;;;;;;5138217;27;20391;-56
2023/03/24 10:45:58;;;;;;;;;;;;;;;;;;5135135;27;20317;-56
2023/03/24 10:48:24;;;;;;;;;;;;;;;;;;5139806;27;19920;-55
2023/03/24 10:50:51;;;;;;;;;;;;;;;;;;5135459;27;19907;-51
2023/03/24 10:53:17;;;;;;;;;;;;;;;;;;5135599;27;19907;-55
2023/03/24 10:55:43;;;;;;;;;;;;;;;;;;5143916;27;19907;-54
2023/03/24 10:58:09;;;;;;;;;;;;;;;;;;5135292;27;19959;-57
2023/03/24 11:00:35;;;;;;;;;;;;;;;;;;5135020;27;20356;-56
2023/03/24 11:03:01;;;;;;;;;;;;;;;;;;5137627;27;19915;-55
2023/03/24 11:05:29;;;;;;;;;;;;;;;;;;5134912;27;20279;-54
2023/03/24 11:07:55;;;;;;;;;;;;;;;;;;5134797;27;20014;-55
2023/03/24 11:10:21;;;;;;;;;;;;;;;;;;5135260;27;19950;-55
2023/03/24 11:12:47;;;;;;;;;;;;;;;;;;5147605;27;20271;-55
2023/03/24 11:15:13;;;;;;;;;;;;;;;;;;5138699;27;19915;-56
2023/03/24 11:17:41;;;;;;;;;;;;;;;;;;5135681;27;19994;-56
2023/03/24 11:20:07;;;;;;;;;;;;;;;;;;5131825;27;19915;-54
2023/03/24 11:22:33;;;;;;;;;;;;;;;;;;5135708;27;19908;-54
2023/03/24 11:24:59;;;;;;;;;;;;;;;;;;5135101;27;19918;-56
2023/03/24 11:27:25;;;;;;;;;;;;;;;;;;5146787;27;19915;-56
2023/03/24 11:29:52;;;;;;;;;;;;;;;;;;5135982;27;19919;-52
2023/03/24 11:32:18;;;;;;;;;;;;;;;;;;5139128;27;19919;-54
2023/03/24 11:34:44;;;;;;;;;;;;;;;;;;5144569;27;19913;-55
2023/03/24 11:37:10;;;;;;;;;;;;;;;;;;5135161;27;20606;-55
2023/03/24 11:39:36;;;;;;;;;;;;;;;;;;5135255;27;20324;-54
2023/03/24 11:42:02;;;;;;;;;;;;;;;;;;5144734;27;19913;-56
2023/03/24 11:44:28;;;;;;;;;;;;;;;;;;5136449;27;20415;-55
2023/03/24 11:46:54;;;;;;;;;;;;;;;;;;5141028;27;19908;-53
2023/03/24 11:49:21;;;;;;;;;;;;;;;;;;5134463;27;19926;-55
2023/03/24 11:51:46;;;;;;;;;;;;;;;;;;5134550;27;19914;-55
2023/03/24 11:54:12;;;;;;;;;;;;;;;;;;5133838;27;19904;-55
2023/03/24 11:56:38;;;;;;;;;;;;;;;;;;5134505;27;19965;-55
2023/03/24 11:59:04;;;;;;;;;;;;;;;;;;5134064;27;20376;-55
2023/03/24 12:01:30;;;;;;;;;;;;;;;;;;5142579;27;19915;-56
2023/03/24 12:03:56;;;;;;;;;;;;;;;;;;5140584;27;19914;-55
2023/03/24 12:06:22;;;;;;;;;;;;;;;;;;5134470;27;19911;-55
2023/03/24 12:08:48;;;;;;;;;;;;;;;;;;5134352;27;20002;-55
2023/03/24 12:11:14;;;;;;;;;;;;;;;;;;5133402;27;19911;-55
2023/03/24 12:13:40;;;;;;;;;;;;;;;;;;5134322;27;20364;-56
2023/03/24 12:16:06;;;;;;;;;;;;;;;;;;5133115;27;19907;-55
2023/03/24 12:18:33;;;;;;;;;;;;;;;;;;5134449;27;20268;-56
2023/03/24 12:21:00;;;;;;;;;;;;;;;;;;5133354;27;19907;-53
2023/03/24 12:23:27;;;;;;;;;;;;;;;;;;5134573;27;19959;-54
2023/03/24 12:25:52;;;;;;;;;;;;;;;;;;5133603;27;19930;-51
2023/03/24 12:28:18;;;;;;;;;;;;;;;;;;5134522;27;19916;-48
2023/03/24 12:30:44;;;;;;;;;;;;;;;;;;5135789;27;19919;-51
2023/03/24 12:33:10;;;;;;;;;;;;;;;;;;5153699;27;20266;-52
2023/03/24 12:35:36;;;;;;;;;;;;;;;;;;5147904;27;19912;-51
2023/03/24 12:38:02;;;;;;;;;;;;;;;;;;5131214;27;19915;-55
2023/03/24 12:40:28;;;;;;;;;;;;;;;;;;5149612;27;19915;-50
2023/03/24 12:42:54;;;;;;;;;;;;;;;;;;5134067;27;19916;-50
2023/03/24 12:45:20;;;;;;;;;;;;;;;;;;5133333;27;19908;-51
2023/03/24 12:47:46;;;;;;;;;;;;;;;;;;5133631;27;19977;-53
2023/03/24 12:50:12;;;;;;;;;;;;;;;;;;5137531;27;19962;-53
2023/03/24 12:52:37;;;;;;;;;;;;;;;;;;5136713;27;19951;-55
2023/03/24 12:55:03;;;;;;;;;;;;;;;;;;5132770;27;20280;-53
2023/03/24 12:57:29;;;;;;;;;;;;;;;;;;5145638;27;19908;-52
2023/03/24 12:59:56;;;;;;;;;;;;;;;;;;5132520;27;19911;-51
2023/03/24 13:02:22;;;;;;;;;;;;;;;;;;5144198;27;19923;-49
2023/03/24 13:04:48;;;;;;;;;;;;;;;;;;5134941;27;19911;-53
2023/03/24 13:07:14;;;;;;;;;;;;;;;;;;5136559;27;19912;-52
2023/03/24 13:09:40;;;;;;;;;;;;;;;;;;5143355;27;19938;-50
2023/03/24 13:12:06;;;;;;;;;;;;;;;;;;5132550;27;19911;-53
2023/03/24 13:14:32;;;;;;;;;;;;;;;;;;5133275;27;19908;-53
2023/03/24 13:16:58;;;;;;;;;;;;;;;;;;5131940;27;19907;-55
2023/03/24 13:19:24;;;;;;;;;;;;;;;;;;5133511;27;19907;-53
2023/03/24 13:21:50;;;;;;;;;;;;;;;;;;5132650;27;20280;-51
2023/03/24 13:24:16;;;;;;;;;;;;;;;;;;5132932;27;19919;-52
2023/03/24 13:26:41;;;;;;;;;;;;;;;;;;5132509;27;19908;-52
2023/03/24 13:29:07;;;;;;;;;;;;;;;;;;5141887;27;20051;-55
2023/03/24 13:31:34;;;;;;;;;;;;;;;;;;5141872;27;20245;-54
2023/03/24 13:34:00;;;;;;;;;;;;;;;;;;5135697;27;19911;-51
2023/03/24 13:36:26;;;;;;;;;;;;;;;;;;5134389;27;19918;-55
2023/03/24 13:38:52;;;;;;;;;;;;;;;;;;5135325;27;20006;-52
2023/03/24 13:41:18;;;;;;;;;;;;;;;;;;5144847;27;19911;-55
2023/03/24 13:43:44;;;;;;;;;;;;;;;;;;5133894;27;20309;-48
2023/03/24 13:46:09;;;;;;;;;;;;;;;;;;5131968;27;19908;-55
2023/03/24 13:48:36;;;;;;;;;;;;;;;;;;5138582;27;19923;-51
2023/03/24 13:51:02;;;;;;;;;;;;;;;;;;5135418;27;19984;-55
2023/03/24 13:53:28;;;;;;;;;;;;;;;;;;5153875;27;19908;-55
2023/03/24 13:55:54;;;;;;;;;;;;;;;;;;5141342;27;19907;-49
2023/03/24 13:58:20;;;;;;;;;;;;;;;;;;5132665;27;19959;-54
2023/03/24 14:00:46;;;;;;;;;;;;;;;;;;5150943;27;20001;-57
2023/03/24 14:03:12;;;;;;;;;;;;;;;;;;5146505;27;20510;-54
2023/03/24 14:05:38;;;;;;;;;;;;;;;;;;5132148;27;20041;-53
2023/03/24 14:08:03;;;;;;;;;;;;;;;;;;5139326;27;20014;-54
2023/03/24 14:10:30;;;;;;;;;;;;;;;;;;5134238;27;20356;-50
2023/03/24 14:12:56;;;;;;;;;;;;;;;;;;5131646;28;19911;-53
2023/03/24 14:15:22;;;;;;;;;;;;;;;;;;5132244;28;19918;-53
2023/03/24 14:17:48;;;;;;;;;;;;;;;;;;5132073;27;19915;-54
2023/03/24 14:20:13;;;;;;;;;;;;;;;;;;5131805;28;19913;-56
2023/03/24 14:22:40;;;;;;;;;;;;;;;;;;5132991;28;19960;-47
2023/03/24 14:25:05;;;;;;;;;;;;;;;;;;5132311;27;19980;-45
2023/03/24 14:27:33;;;;;;;;;;;;;;;;;;5152080;27;20363;-45
2023/03/24 14:29:59;;;;;;;;;;;;;;;;;;5152122;27;20317;-44
2023/03/24 14:32:24;;;;;;;;;;;;;;;;;;5153484;27;19907;-43
2023/03/24 14:34:50;;;;;;;;;;;;;;;;;;5153324;27;19907;-44
2023/03/24 14:37:17;;;;;;;;;;;;;;;;;;5152600;27;19938;-47
2023/03/24 14:39:42;;;;;;;;;;;;;;;;;;5149923;27;20375;-45
2023/03/24 14:42:08;;;;;;;;;;;;;;;;;;5140875;27;19986;-44
2023/03/24 14:44:34;;;;;;;;;;;;;;;;;;5150177;27;19907;-44
2023/03/24 14:47:00;;;;;;;;;;;;;;;;;;5151901;27;19913;-47
2023/03/24 14:49:26;;;;;;;;;;;;;;;;;;5152943;27;20473;-47
2023/03/24 14:51:52;;;;;;;;;;;;;;;;;;5152992;27;19956;-49
2023/03/24 14:54:18;;;;;;;;;;;;;;;;;;5153510;27;19907;-47
2023/03/24 14:56:44;;;;;;;;;;;;;;;;;;5155430;27;19914;-45
2023/03/24 14:59:10;;;;;;;;;;;;;;;;;;5147216;27;19912;-49
2023/03/24 15:01:36;;;;;;;;;;;;;;;;;;5135928;27;20364;-50
2023/03/24 15:04:03;;;;;;;;;;;;;;;;;;5135677;27;19908;-46
2023/03/24 15:06:29;;;;;;;;;;;;;;;;;;5135746;27;20337;-44
2023/03/24 15:08:57;;;;;;;;;;;;;;;;;;5135278;27;19972;-45
2023/03/24 15:11:24;;;;;;;;;;;;;;;;;;5134935;27;19938;-44
2023/03/24 15:13:50;;;;;;;;;;;;;;;;;;5135964;27;19907;-45
2023/03/24 15:16:16;;;;;;;;;;;;;;;;;;5139040;27;20003;-44
2023/03/24 15:18:42;;;;;;;;;;;;;;;;;;5153193;27;19955;-42
2023/03/24 15:21:08;;;;;;;;;;;;;;;;;;5137885;27;19907;-42
2023/03/24 15:23:34;;;;;;;;;;;;;;;;;;5135890;27;19908;-42
2023/03/24 15:26:00;;;;;;;;;;;;;;;;;;5135881;27;19908;-42
2023/03/24 15:28:26;;;;;;;;;;;;;;;;;;5145041;27;19978;-43
2023/03/24 15:30:52;;;;;;;;;;;;;;;;;;5134581;27;20360;-44
2023/03/24 15:33:18;;;;;;;;;;;;;;;;;;5134954;27;19907;-43
2023/03/24 15:35:44;;;;;;;;;;;;;;;;;;5135225;27;19907;-46
2023/03/24 15:38:09;;;;;;;;;;;;;;;;;;5134647;27;20415;-42
2023/03/24 15:40:35;;;;;;;;;;;;;;;;;;5146059;27;19991;-41
2023/03/24 15:43:01;;;;;;;;;;;;;;;;;;5136109;27;19929;-42
2023/03/24 15:45:28;;;;;;;;;;;;;;;;;;5134755;27;19926;-43
2023/03/24 15:47:54;;;;;;;;;;;;;;;;;;5134397;27;20056;-45
2023/03/24 15:50:20;;;;;;;;;;;;;;;;;;5144911;27;19995;-45
2023/03/24 15:52:46;;;;;;;;;;;;;;;;;;5155509;27;19977;-44
2023/03/24 15:55:12;;;;;;;;;;;;;;;;;;5154122;27;19914;-45
2023/03/24 15:57:38;;;;;;;;;;;;;;;;;;5151083;27;20390;-45
2023/03/24 16:00:14;;;;;;;;;;;;;;;;;;5139586;27;19934;-44
2023/03/24 16:02:41;;;;;;;;;;;;;;;;;;5147846;27;20275;-44
2023/03/24 16:05:07;;;;;;;;;;;;;;;;;;5137298;27;20356;-47
2023/03/24 16:07:33;;;;;;;;;;;;;;;;;;5155380;27;19997;-44
2023/03/24 16:10:03;;;;;;;;;;;;;;;;;;5133939;27;19926;-44
2023/03/24 16:12:29;;;;;;;;;;;;;;;;;;5145171;27;19911;-45
2023/03/24 16:14:55;;;;;;;;;;;;;;;;;;5150510;27;20287;-44
2023/03/24 16:17:21;;;;;;;;;;;;;;;;;;5146204;27;19919;-44
2023/03/24 16:19:47;;;;;;;;;;;;;;;;;;5145518;27;20352;-45
2023/03/24 16:22:13;;;;;;;;;;;;;;;;;;5123548;27;20021;-47
2023/03/24 16:24:39;;;;;;;;;;;;;;;;;;5146593;27;19919;-46
2023/03/24 16:27:05;;;;;;;;;;;;;;;;;;5134763;27;19911;-45
2023/03/24 16:29:30;;;;;;;;;;;;;;;;;;5132868;27;19919;-45
2023/03/24 16:31:57;;;;;;;;;;;;;;;;;;5131773;27;19998;-49
2023/03/24 16:34:23;;;;;;;;;;;;;;;;;;5140815;27;20500;-45
2023/03/24 16:36:49;;;;;;;;;;;;;;;;;;5132961;27;19907;-45
2023/03/24 16:39:15;;;;;;;;;;;;;;;;;;5144910;27;19919;-46